Time;durP1;ratioP1;P1;durP2;ratioP2;P2;SDS_P1;SDS_P2;PMS_P1;PMS_P2;Temp;Humidity;BMP_temperature;BMP_pressure;BME280_temperature;BME280_humidity;BME280_pressure;Samples;Min_cycle;Max_cycle;Signal;HPM_P1;HPM_P2
2024/03/11 00:00:19;;;;;;;55.22;33.08;;;6.70;99.90;;;;;;5117607;27;20132;-62
2024/03/11 00:03:07;;;;;;;50.13;31.17;;;6.80;99.90;;;;;;5131666;27;20031;-63
2024/03/11 00:05:53;;;;;;;43.50;27.80;;;6.80;99.90;;;;;;5134051;27;20309;-63
2024/03/11 00:08:40;;;;;;;48.45;28.95;;;6.80;99.90;;;;;;5135432;27;20368;-63
2024/03/11 00:11:28;;;;;;;47.33;29.42;;;6.80;99.90;;;;;;5130953;27;20365;-63
2024/03/11 00:14:21;;;;;;;47.40;29.75;;;6.70;99.90;;;;;;5138563;27;20049;-63
2024/03/11 00:17:08;;;;;;;46.30;30.45;;;6.70;99.90;;;;;;5132019;27;20088;-63
2024/03/11 00:19:54;;;;;;;45.53;28.55;;;6.80;99.90;;;;;;5123627;27;20036;-63
2024/03/11 00:22:40;;;;;;;45.15;28.67;;;6.70;99.90;;;;;;5123797;27;20304;-63
2024/03/11 00:25:25;;;;;;;53.30;30.67;;;6.70;99.90;;;;;;5114751;27;20114;-63
2024/03/11 00:28:11;;;;;;;47.65;30.50;;;6.70;99.90;;;;;;5123907;27;20627;-63
2024/03/11 00:30:57;;;;;;;48.00;30.80;;;6.70;99.90;;;;;;5122100;27;20027;-63
2024/03/11 00:33:43;;;;;;;45.15;30.15;;;6.70;99.90;;;;;;5124548;27;20067;-62
2024/03/11 00:36:31;;;;;;;47.33;29.88;;;6.70;99.90;;;;;;5121937;27;20066;-63
2024/03/11 00:39:17;;;;;;;49.38;29.33;;;6.70;99.90;;;;;;5117038;27;20050;-63
2024/03/11 00:42:04;;;;;;;50.58;29.95;;;6.70;99.90;;;;;;5122132;27;20038;-64
2024/03/11 00:44:50;;;;;;;48.97;30.70;;;6.70;99.90;;;;;;5122537;27;20039;-63
2024/03/11 00:47:39;;;;;;;47.78;30.58;;;6.70;99.90;;;;;;5123962;27;20039;-63
2024/03/11 00:50:25;;;;;;;50.92;31.63;;;6.60;99.90;;;;;;5123803;27;20539;-63
2024/03/11 00:53:11;;;;;;;51.30;32.42;;;6.60;99.90;;;;;;5122907;27;20572;-63
2024/03/11 00:55:57;;;;;;;44.85;28.52;;;6.60;99.90;;;;;;5124240;27;20081;-63
2024/03/11 00:58:43;;;;;;;52.70;32.75;;;6.60;99.90;;;;;;5126013;27;20080;-63
2024/03/11 01:01:29;;;;;;;48.10;30.20;;;6.60;99.90;;;;;;5123116;27;20042;-63
2024/03/11 01:04:15;;;;;;;49.33;30.65;;;6.60;99.90;;;;;;5120795;27;20033;-63
2024/03/11 01:07:02;;;;;;;49.95;30.65;;;6.60;99.90;;;;;;5116659;27;20035;-63
2024/03/11 01:09:48;;;;;;;;;;;6.60;99.90;;;;;;5121113;27;20035;-64
2024/03/11 01:12:33;;;;;;;46.28;29.15;;;6.60;99.90;;;;;;5121169;27;20018;-63
2024/03/11 01:15:20;;;;;;;47.63;29.65;;;6.60;99.90;;;;;;5121158;27;20032;-63
2024/03/11 01:18:07;;;;;;;;;;;6.60;99.90;;;;;;5106516;27;20850;-64
2024/03/11 01:20:54;;;;;;;43.05;28.02;;;6.60;99.90;;;;;;5125025;27;20423;-64
2024/03/11 01:23:40;;;;;;;49.20;30.13;;;6.60;99.90;;;;;;5123367;27;20027;-64
2024/03/11 01:26:26;;;;;;;51.55;32.47;;;6.60;99.90;;;;;;5113380;27;20033;-64
2024/03/11 01:29:12;;;;;;;53.00;32.47;;;6.60;99.90;;;;;;5121160;27;20024;-63
2024/03/11 01:31:58;;;;;;;52.50;31.95;;;6.50;99.90;;;;;;5122943;27;20035;-63
2024/03/11 01:34:44;;;;;;;51.72;31.98;;;6.50;99.90;;;;;;5120402;27;20613;-63
2024/03/11 01:37:29;;;;;;;48.75;30.73;;;6.50;99.90;;;;;;5127123;27;20035;-63
2024/03/11 01:40:15;;;;;;;63.70;36.65;;;6.50;99.90;;;;;;5117590;27;20043;-63
2024/03/11 01:43:02;;;;;;;57.55;34.95;;;6.50;99.90;;;;;;5120827;27;20034;-63
2024/03/11 01:45:48;;;;;;;59.47;35.40;;;6.40;99.90;;;;;;5123600;27;20039;-63
2024/03/11 01:48:34;;;;;;;58.25;33.78;;;6.40;99.90;;;;;;5113278;27;20046;-63
2024/03/11 01:51:21;;;;;;;53.17;32.93;;;6.40;99.90;;;;;;5120306;27;20066;-63
2024/03/11 01:54:07;;;;;;;58.60;33.78;;;6.40;99.90;;;;;;5120601;27;20035;-63
2024/03/11 01:56:55;;;;;;;65.43;37.80;;;6.40;99.90;;;;;;5120662;27;20035;-63
2024/03/11 01:59:42;;;;;;;58.60;35.15;;;6.40;99.90;;;;;;5123240;27;20038;-63
2024/03/11 02:02:29;;;;;;;51.53;32.22;;;6.40;99.90;;;;;;5113673;27;20040;-63
2024/03/11 02:05:15;;;;;;;64.47;38.58;;;6.40;99.90;;;;;;5119273;27;20045;-63
2024/03/11 02:08:02;;;;;;;60.73;36.13;;;6.30;99.90;;;;;;5121391;27;20072;-62
2024/03/11 02:10:48;;;;;;;;;;;6.40;99.90;;;;;;5122940;27;20088;-63
2024/03/11 02:13:33;;;;;;;52.88;32.20;;;6.40;99.90;;;;;;5122141;27;19907;-63
2024/03/11 02:16:22;;;;;;;50.92;31.67;;;6.40;99.90;;;;;;5114761;27;20051;-62
2024/03/11 02:19:12;;;;;;;58.42;35.60;;;6.50;99.90;;;;;;5123065;27;20579;-62
2024/03/11 02:21:58;;;;;;;62.95;35.90;;;6.50;99.90;;;;;;5121064;27;20435;-62
2024/03/11 02:24:44;;;;;;;65.97;38.28;;;6.50;99.90;;;;;;5123488;27;20042;-62
2024/03/11 02:27:31;;;;;;;60.07;35.10;;;6.40;99.90;;;;;;5117659;27;20506;-62
2024/03/11 02:30:17;;;;;;;53.50;33.60;;;6.40;99.90;;;;;;5117941;27;20100;-62
2024/03/11 02:33:05;;;;;;;51.60;31.88;;;6.40;99.90;;;;;;5117449;27;20420;-62
2024/03/11 02:35:51;;;;;;;49.53;31.65;;;6.40;99.90;;;;;;5119883;27;20118;-63
2024/03/11 02:38:37;;;;;;;64.17;38.27;;;6.50;99.90;;;;;;5122492;27;20034;-62
2024/03/11 02:41:23;;;;;;;63.08;36.78;;;6.40;99.90;;;;;;5115756;27;20042;-62
2024/03/11 02:44:12;;;;;;;49.17;31.17;;;6.30;99.90;;;;;;5116892;27;20059;-63
2024/03/11 02:46:57;;;;;;;46.92;30.02;;;6.30;99.90;;;;;;5117690;27;20038;-63
2024/03/11 02:49:43;;;;;;;46.17;30.15;;;6.40;99.90;;;;;;5117974;27;20574;-63
2024/03/11 02:52:29;;;;;;;60.05;35.50;;;6.40;99.90;;;;;;5115382;27;20035;-63
2024/03/11 02:55:18;;;;;;;64.80;34.83;;;6.40;99.90;;;;;;5119266;27;20027;-62
2024/03/11 02:58:04;;;;;;;57.90;33.20;;;6.30;99.90;;;;;;5116183;27;20508;-63
2024/03/11 03:00:50;;;;;;;44.67;29.10;;;6.30;99.90;;;;;;5115758;27;20039;-62
2024/03/11 03:03:35;;;;;;;42.03;27.13;;;6.30;99.90;;;;;;5121038;27;20520;-63
2024/03/11 03:06:21;;;;;;;41.40;26.88;;;6.30;99.90;;;;;;5117640;28;20031;-63
2024/03/11 03:09:07;;;;;;;52.88;30.55;;;6.30;99.90;;;;;;5119063;28;20523;-63
2024/03/11 03:11:54;;;;;;;47.78;29.60;;;6.30;99.90;;;;;;5117488;28;20033;-63
2024/03/11 03:14:40;;;;;;;47.67;31.27;;;6.30;99.90;;;;;;5114999;28;20115;-63
2024/03/11 03:17:26;;;;;;;51.83;31.73;;;6.30;99.90;;;;;;5113777;28;20106;-63
2024/03/11 03:20:12;;;;;;;51.13;30.95;;;6.30;99.90;;;;;;5123185;27;20024;-63
2024/03/11 03:22:58;;;;;;;50.63;31.10;;;6.30;99.90;;;;;;5121068;27;20027;-63
2024/03/11 03:25:44;;;;;;;47.90;29.02;;;6.30;99.90;;;;;;5127282;27;20039;-63
2024/03/11 03:28:30;;;;;;;45.80;28.80;;;6.40;99.90;;;;;;5121036;28;20396;-63
2024/03/11 03:31:17;;;;;;;44.15;27.95;;;6.40;99.90;;;;;;5115168;27;20055;-63
2024/03/11 03:34:06;;;;;;;42.42;27.83;;;6.30;99.90;;;;;;5116368;28;20043;-63
2024/03/11 03:36:51;;;;;;;45.17;28.58;;;6.30;99.90;;;;;;5112439;27;20445;-63
2024/03/11 03:39:37;;;;;;;43.92;27.00;;;6.40;99.90;;;;;;5118303;27;20039;-63
2024/03/11 03:42:23;;;;;;;46.40;27.48;;;6.40;99.90;;;;;;5120252;28;20031;-63
2024/03/11 03:45:09;;;;;;;35.10;23.70;;;6.40;99.90;;;;;;5119771;28;20106;-63
2024/03/11 03:47:55;;;;;;;41.97;26.55;;;6.40;99.90;;;;;;5111174;28;20116;-63
2024/03/11 03:50:41;;;;;;;38.05;24.67;;;6.40;99.90;;;;;;5110509;28;20035;-63
2024/03/11 03:53:27;;;;;;;41.22;26.00;;;6.40;99.90;;;;;;5116471;27;20042;-63
2024/03/11 03:56:14;;;;;;;47.65;28.45;;;6.30;99.90;;;;;;5122124;27;20532;-63
2024/03/11 03:59:00;;;;;;;42.60;26.45;;;6.30;99.90;;;;;;5124691;27;20042;-63
2024/03/11 04:01:46;;;;;;;44.28;26.60;;;6.30;99.90;;;;;;5128482;27;20046;-63
2024/03/11 04:04:32;;;;;;;51.28;28.65;;;6.30;99.90;;;;;;5109933;27;20039;-63
2024/03/11 04:07:18;;;;;;;44.63;26.80;;;6.30;99.90;;;;;;5120361;27;20062;-63
2024/03/11 04:10:04;;;;;;;37.95;25.13;;;6.30;99.90;;;;;;5119367;27;20032;-63
2024/03/11 04:12:52;;;;;;;38.75;24.77;;;6.30;99.90;;;;;;5124382;27;20035;-63
2024/03/11 04:15:46;;;;;;;39.15;24.95;;;6.40;99.90;;;;;;5122139;27;20544;-63
2024/03/11 04:18:34;;;;;;;37.47;24.33;;;6.30;99.90;;;;;;5127198;27;20076;-63
2024/03/11 04:21:21;;;;;;;51.92;27.85;;;6.40;99.90;;;;;;5104504;27;20035;-63
2024/03/11 04:24:08;;;;;;;40.90;25.65;;;6.40;99.90;;;;;;5121840;27;20035;-63
2024/03/11 04:26:55;;;;;;;39.30;24.25;;;6.40;99.90;;;;;;5120666;27;20088;-63
2024/03/11 04:29:41;;;;;;;39.83;24.33;;;6.40;99.90;;;;;;5118499;27;20027;-63
2024/03/11 04:32:28;;;;;;;39.53;24.80;;;6.40;99.90;;;;;;5119924;27;20788;-63
2024/03/11 04:35:14;;;;;;;45.25;27.63;;;6.40;99.90;;;;;;5121178;27;20089;-63
2024/03/11 04:38:06;;;;;;;39.78;25.17;;;6.40;99.90;;;;;;5125057;27;20062;-63
2024/03/11 04:40:52;;;;;;;50.28;31.17;;;6.40;99.90;;;;;;5119657;27;20475;-63
2024/03/11 04:43:38;;;;;;;42.47;25.42;;;6.40;99.90;;;;;;5120669;27;20027;-63
2024/03/11 04:46:24;;;;;;;53.60;32.30;;;6.40;99.90;;;;;;5120068;27;20035;-63
2024/03/11 04:49:09;;;;;;;51.90;32.20;;;6.40;99.90;;;;;;5129870;27;20027;-63
2024/03/11 04:51:55;;;;;;;57.13;33.70;;;6.30;99.90;;;;;;5119903;27;20618;-63
2024/03/11 04:54:41;;;;;;;58.47;33.97;;;6.40;99.90;;;;;;5124459;27;20031;-63
2024/03/11 04:57:27;;;;;;;56.30;33.20;;;6.30;99.90;;;;;;5114430;27;20043;-63
2024/03/11 05:00:14;;;;;;;69.25;38.13;;;6.30;99.90;;;;;;5123959;27;20039;-63
2024/03/11 05:03:01;;;;;;;62.88;34.88;;;6.30;99.90;;;;;;5119217;27;20476;-63
2024/03/11 05:05:47;;;;;;;62.90;34.75;;;6.30;99.90;;;;;;5121550;27;20715;-64
2024/03/11 05:08:34;;;;;;;61.58;33.55;;;6.30;99.90;;;;;;5123449;27;20536;-63
2024/03/11 05:11:19;;;;;;;62.22;34.22;;;6.30;99.90;;;;;;5115462;27;20061;-63
2024/03/11 05:14:06;;;;;;;52.78;31.10;;;6.30;99.90;;;;;;5118850;27;20039;-63
2024/03/11 05:16:55;;;;;;;;;;;6.30;99.90;;;;;;5123807;27;20793;-63
2024/03/11 05:19:41;;;;;;;62.17;34.42;;;6.30;99.90;;;;;;5114150;22;20327;-60
2024/03/11 05:22:27;;;;;;;68.32;36.17;;;6.20;99.90;;;;;;5103218;28;20113;-60
2024/03/11 05:25:17;;;;;;;61.55;34.97;;;6.20;99.90;;;;;;5083253;27;20183;-60
2024/03/11 05:28:03;;;;;;;60.53;33.60;;;6.20;99.90;;;;;;5081649;28;20043;-60
2024/03/11 05:30:49;;;;;;;63.08;35.22;;;6.20;99.90;;;;;;5080516;28;20101;-60
2024/03/11 05:33:35;;;;;;;60.25;32.95;;;6.20;99.90;;;;;;5080824;28;20539;-60
2024/03/11 05:36:21;;;;;;;43.53;26.65;;;6.20;99.90;;;;;;5079624;28;20055;-60
2024/03/11 05:39:09;;;;;;;45.47;27.30;;;6.10;99.90;;;;;;5077707;28;20043;-60
2024/03/11 05:41:54;;;;;;;42.38;25.67;;;6.10;99.90;;;;;;5081517;28;20024;-60
2024/03/11 05:44:41;;;;;;;51.95;28.55;;;6.20;99.90;;;;;;5080738;28;20020;-60
2024/03/11 05:47:27;;;;;;;40.13;24.50;;;6.20;99.90;;;;;;5080539;28;20089;-60
2024/03/11 05:50:14;;;;;;;39.35;25.13;;;6.20;99.90;;;;;;5091396;28;20110;-59
2024/03/11 05:53:00;;;;;;;39.60;24.77;;;6.30;99.90;;;;;;5084284;28;20032;-60
2024/03/11 05:55:46;;;;;;;40.88;25.15;;;6.30;99.90;;;;;;5087424;28;20040;-59
2024/03/11 05:58:32;;;;;;;35.63;22.30;;;6.20;99.90;;;;;;5077660;28;20071;-60
2024/03/11 06:01:20;;;;;;;42.92;25.92;;;6.30;99.90;;;;;;5082421;28;20040;-60
2024/03/11 06:04:06;;;;;;;38.30;23.15;;;6.30;99.90;;;;;;5079806;28;20024;-58
2024/03/11 06:06:53;;;;;;;39.92;24.92;;;6.30;99.90;;;;;;5081010;28;20031;-60
2024/03/11 06:09:38;;;;;;;41.58;23.55;;;6.30;99.90;;;;;;5084381;28;20031;-60
2024/03/11 06:12:24;;;;;;;40.22;23.30;;;6.30;99.90;;;;;;5092219;28;20027;-60
2024/03/11 06:15:11;;;;;;;39.90;25.25;;;6.30;99.90;;;;;;5078438;28;20107;-60
2024/03/11 06:17:57;;;;;;;41.00;23.50;;;6.30;99.90;;;;;;5091848;28;20684;-57
2024/03/11 06:20:43;;;;;;;38.72;23.05;;;6.30;99.90;;;;;;5091777;28;20031;-60
2024/03/11 06:23:30;;;;;;;37.67;22.20;;;6.30;99.90;;;;;;5088751;28;20086;-60
2024/03/11 06:26:16;;;;;;;47.75;26.02;;;6.30;99.90;;;;;;5092984;28;20101;-62
2024/03/11 06:29:03;;;;;;;44.30;24.23;;;6.20;99.90;;;;;;5090260;28;20043;-62
2024/03/11 06:31:49;;;;;;;;;;;6.20;99.90;;;;;;5097540;27;20040;-60
2024/03/11 06:34:35;;;;;;;44.28;23.58;;;6.20;99.90;;;;;;5092688;28;20473;-60
2024/03/11 06:37:21;;;;;;;42.50;24.00;;;6.20;99.90;;;;;;5091074;28;20028;-62
2024/03/11 06:40:08;;;;;;;41.97;25.13;;;6.20;99.90;;;;;;5088988;28;20031;-62
2024/03/11 06:42:56;;;;;;;48.90;26.88;;;6.20;99.90;;;;;;5087065;28;20655;-62
2024/03/11 06:45:42;;;;;;;50.42;25.65;;;6.20;99.90;;;;;;5097770;28;20454;-62
2024/03/11 06:48:29;;;;;;;41.38;23.05;;;6.20;99.90;;;;;;5089780;28;20741;-62
2024/03/11 06:51:15;;;;;;;;;;;6.20;99.90;;;;;;5064645;28;20040;-62
2024/03/11 06:54:01;;;;;;;41.15;22.83;;;6.20;99.90;;;;;;5086669;28;19907;-61
2024/03/11 06:56:47;;;;;;;45.20;23.77;;;6.20;99.90;;;;;;5084719;28;20043;-60
2024/03/11 06:59:32;;;;;;;40.92;23.73;;;6.30;99.90;;;;;;5076941;28;20039;-62
2024/03/11 07:02:20;;;;;;;45.40;24.33;;;6.30;99.90;;;;;;5086225;28;20455;-61
2024/03/11 07:05:09;;;;;;;40.92;22.83;;;6.30;99.90;;;;;;5092514;28;20043;-62
2024/03/11 07:07:56;;;;;;;38.40;22.10;;;6.30;99.90;;;;;;5082030;28;20074;-62
2024/03/11 07:10:41;;;;;;;40.80;23.02;;;6.30;99.90;;;;;;5083503;28;20039;-63
2024/03/11 07:13:31;;;;;;;36.63;21.55;;;6.30;99.90;;;;;;5090279;28;20643;-60
2024/03/11 07:16:17;;;;;;;43.70;21.23;;;6.30;99.90;;;;;;5081858;28;20036;-60
2024/03/11 07:19:04;;;;;;;39.47;21.33;;;6.30;99.90;;;;;;5079042;28;20161;-61
2024/03/11 07:21:50;;;;;;;;;;;6.30;99.90;;;;;;5082114;28;20798;-60
2024/03/11 07:24:37;;;;;;;35.85;19.95;;;6.30;99.90;;;;;;5069494;28;19911;-60
2024/03/11 07:27:23;;;;;;;32.90;18.00;;;6.40;99.90;;;;;;5076661;28;20605;-58
2024/03/11 07:30:12;;;;;;;34.17;18.08;;;6.40;99.90;;;;;;5082581;28;20421;-61
2024/03/11 07:33:05;;;;;;;31.02;17.70;;;6.50;99.90;;;;;;5083455;28;20043;-61
2024/03/11 07:35:53;;;;;;;27.65;15.95;;;6.50;99.90;;;;;;5085072;28;20023;-59
2024/03/11 07:38:38;;;;;;;28.55;16.73;;;6.50;99.90;;;;;;5082677;28;20029;-60
2024/03/11 07:41:24;;;;;;;30.17;17.13;;;6.60;99.90;;;;;;5081702;28;20122;-60
2024/03/11 07:44:11;;;;;;;28.88;15.80;;;6.60;99.90;;;;;;5079841;28;20513;-60
2024/03/11 07:46:56;;;;;;;27.92;15.32;;;6.60;99.90;;;;;;5097082;28;20404;-60
2024/03/11 07:49:42;;;;;;;23.60;14.07;;;6.60;99.90;;;;;;5102368;28;20031;-60
2024/03/11 07:52:29;;;;;;;26.85;14.85;;;6.60;99.90;;;;;;5087286;28;20098;-60
2024/03/11 07:55:14;;;;;;;27.67;15.10;;;6.60;99.90;;;;;;5083957;28;20043;-61
2024/03/11 07:58:01;;;;;;;26.63;16.38;;;6.60;99.90;;;;;;5088742;28;20493;-59
2024/03/11 08:00:47;;;;;;;25.63;15.23;;;6.60;99.90;;;;;;5081643;28;20055;-60
2024/03/11 08:03:33;;;;;;;23.13;13.82;;;6.60;99.90;;;;;;5084783;28;20519;-59
2024/03/11 08:06:18;;;;;;;25.52;15.40;;;6.60;99.90;;;;;;5089825;28;20110;-60
2024/03/11 08:09:09;;;;;;;25.17;14.13;;;6.60;99.90;;;;;;5083091;28;20032;-60
2024/03/11 08:11:56;;;;;;;25.75;15.50;;;6.60;99.90;;;;;;5097821;28;20230;-61
2024/03/11 08:14:44;;;;;;;24.95;14.15;;;6.60;99.90;;;;;;5085942;28;20024;-60
2024/03/11 08:17:30;;;;;;;22.17;13.48;;;6.60;99.90;;;;;;5081848;28;20195;-61
2024/03/11 08:20:18;;;;;;;19.47;11.90;;;6.50;99.90;;;;;;5092462;28;20044;-61
2024/03/11 08:23:04;;;;;;;19.40;11.95;;;6.60;99.90;;;;;;5091806;28;20027;-60
2024/03/11 08:25:51;;;;;;;20.75;11.65;;;6.50;99.90;;;;;;5090383;28;20475;-61
2024/03/11 08:28:40;;;;;;;20.08;12.57;;;6.50;99.90;;;;;;5089238;28;20028;-60
2024/03/11 08:31:25;;;;;;;20.92;12.35;;;6.50;99.90;;;;;;5091185;28;20681;-59
2024/03/11 08:34:11;;;;;;;17.75;10.65;;;6.50;99.90;;;;;;5091889;28;20184;-61
2024/03/11 08:36:57;;;;;;;18.95;10.77;;;6.50;99.90;;;;;;5085601;28;20036;-61
2024/03/11 08:39:43;;;;;;;19.02;10.73;;;6.50;99.90;;;;;;5094280;28;20073;-60
2024/03/11 08:42:29;;;;;;;17.00;10.15;;;6.60;99.90;;;;;;5089801;28;20042;-61
2024/03/11 08:45:23;;;;;;;15.57;8.95;;;6.50;99.90;;;;;;5094415;28;20025;-61
2024/03/11 08:48:13;;;;;;;15.35;8.77;;;6.50;99.90;;;;;;5095449;28;20059;-62
2024/03/11 08:50:59;;;;;;;11.85;7.75;;;6.50;99.90;;;;;;5096834;28;20063;-62
2024/03/11 08:53:45;;;;;;;12.80;7.47;;;6.50;99.90;;;;;;5096608;28;20495;-61
2024/03/11 08:56:31;;;;;;;10.00;6.40;;;6.50;99.90;;;;;;5096901;28;20031;-62
2024/03/11 08:59:17;;;;;;;11.30;7.15;;;6.50;99.90;;;;;;5090261;28;20496;-61
2024/03/11 09:02:03;;;;;;;10.70;5.85;;;6.40;99.90;;;;;;5087951;27;20040;-61
2024/03/11 09:04:49;;;;;;;13.48;6.35;;;6.40;99.90;;;;;;5088954;28;20035;-61
2024/03/11 09:07:35;;;;;;;10.07;5.95;;;6.40;99.90;;;;;;5086498;28;20044;-62
2024/03/11 09:10:22;;;;;;;8.32;5.63;;;6.40;99.90;;;;;;5095377;28;20051;-62
2024/03/11 09:13:08;;;;;;;7.93;4.88;;;6.30;99.90;;;;;;5095215;28;20035;-61
2024/03/11 09:15:55;;;;;;;8.85;5.32;;;6.30;99.90;;;;;;5092523;28;20137;-61
2024/03/11 09:18:41;;;;;;;8.32;4.93;;;6.30;99.90;;;;;;5090680;28;20032;-61
2024/03/11 09:21:27;;;;;;;5.95;3.75;;;6.40;99.90;;;;;;5079791;28;20032;-62
2024/03/11 09:24:13;;;;;;;5.97;3.92;;;6.40;99.90;;;;;;5081705;28;20401;-62
2024/03/11 09:27:02;;;;;;;4.70;3.20;;;6.30;99.90;;;;;;5082415;28;20032;-61
2024/03/11 09:29:48;;;;;;;4.63;3.08;;;6.40;99.90;;;;;;5081616;28;20028;-62
2024/03/11 09:32:35;;;;;;;3.85;2.45;;;6.40;99.90;;;;;;5082431;28;20040;-61
2024/03/11 09:35:21;;;;;;;3.60;2.45;;;6.50;99.90;;;;;;5082959;28;20035;-62
2024/03/11 09:38:09;;;;;;;1.83;1.50;;;6.60;99.90;;;;;;5081000;28;20035;-62
2024/03/11 09:40:57;;;;;;;2.33;1.58;;;6.70;99.90;;;;;;5079151;28;20032;-62
2024/03/11 09:43:48;;;;;;;1.85;1.13;;;6.70;99.90;;;;;;5080862;28;20040;-62
2024/03/11 09:46:34;;;;;;;1.77;1.00;;;6.90;99.90;;;;;;5083892;28;20036;-61
2024/03/11 09:49:23;;;;;;;1.47;0.97;;;6.90;99.90;;;;;;5075487;28;20028;-62
2024/03/11 09:52:11;;;;;;;1.13;0.82;;;7.10;99.90;;;;;;5083228;28;20024;-62
2024/03/11 09:54:58;;;;;;;1.38;0.80;;;7.10;99.90;;;;;;5094375;28;20398;-62
2024/03/11 09:57:45;;;;;;;1.02;0.40;;;7.10;99.90;;;;;;5094879;28;20036;-62
2024/03/11 10:00:33;;;;;;;0.60;0.43;;;7.10;99.90;;;;;;5082863;27;20031;-61
2024/03/11 10:03:21;;;;;;;0.77;0.40;;;7.20;99.90;;;;;;5092631;28;20529;-62
2024/03/11 10:06:07;;;;;;;1.75;0.47;;;7.30;99.90;;;;;;5082052;28;20063;-62
2024/03/11 10:08:53;;;;;;;0.93;0.40;;;7.40;99.90;;;;;;5085154;28;20626;-62
2024/03/11 10:11:44;;;;;;;0.30;0.20;;;7.40;99.90;;;;;;5084218;28;20070;-62
2024/03/11 10:14:33;;;;;;;1.73;0.35;;;7.40;99.90;;;;;;5087837;28;20032;-62
2024/03/11 10:17:32;;;;;;;0.20;0.20;;;7.40;99.90;;;;;;5083307;28;20032;-62
2024/03/11 10:20:21;;;;;;;0.75;0.30;;;7.50;99.90;;;;;;5084431;28;20043;-62
2024/03/11 10:23:07;;;;;;;0.28;0.20;;;7.70;99.90;;;;;;5074257;28;20397;-62
2024/03/11 10:26:18;;;;;;;0.67;0.40;;;7.80;99.90;;;;;;5090080;28;20044;-61
2024/03/11 10:29:06;;;;;;;0.15;0.13;;;7.90;99.90;;;;;;5081640;28;20288;-60
2024/03/11 10:31:52;;;;;;;0.47;0.38;;;7.80;99.90;;;;;;5097326;27;20043;-62
2024/03/11 10:34:54;;;;;;;0.22;0.20;;;7.70;99.90;;;;;;5071471;28;20067;-62
2024/03/11 10:37:43;;;;;;;0.17;0.17;;;7.60;99.90;;;;;;5085780;28;20044;-62
2024/03/11 10:40:32;;;;;;;0.10;0.10;;;7.50;99.90;;;;;;5091687;28;20043;-61
2024/03/11 10:43:25;;;;;;;0.10;0.10;;;7.30;99.90;;;;;;5088763;28;20028;-62
2024/03/11 10:46:22;;;;;;;0.63;0.20;;;7.30;99.90;;;;;;5073278;28;20032;-61
2024/03/11 10:49:15;;;;;;;0.17;0.10;;;7.20;99.90;;;;;;5092164;28;20118;-61
2024/03/11 10:52:07;;;;;;;0.10;0.10;;;6.80;99.90;;;;;;5087431;28;20417;-62
2024/03/11 10:54:57;;;;;;;0.10;0.10;;;6.70;99.90;;;;;;5076731;28;20035;-61
2024/03/11 10:57:47;;;;;;;0.10;0.10;;;6.60;99.90;;;;;;5082285;28;20032;-62
2024/03/11 11:00:36;;;;;;;0.68;0.13;;;6.70;99.90;;;;;;5085080;28;20054;-62
2024/03/11 11:03:23;;;;;;;0.10;0.10;;;6.90;99.90;;;;;;5088134;28;20593;-62
2024/03/11 11:06:14;;;;;;;;;;;7.00;99.90;;;;;;5083685;28;20043;-61
2024/03/11 11:09:11;;;;;;;0.40;0.20;;;6.80;99.90;;;;;;5079612;28;19916;-61
2024/03/11 11:11:57;;;;;;;0.40;0.17;;;7.00;99.90;;;;;;5083456;28;20313;-62
2024/03/11 11:14:43;;;;;;;;;;;7.10;99.90;;;;;;5079359;28;20035;-62
2024/03/11 11:17:30;;;;;;;0.10;0.10;;;7.30;99.90;;;;;;5082560;28;20679;-62
2024/03/11 11:20:34;;;;;;;;;;;7.20;99.90;;;;;;5081152;22;21284;-61
2024/03/11 11:23:27;;;;;;;0.30;0.20;;;7.10;99.90;;;;;;5061166;28;19916;-62
2024/03/11 11:26:40;;;;;;;0.32;0.10;;;7.20;99.90;;;;;;5060108;28;20760;-62
2024/03/11 11:29:27;;;;;;;0.10;0.10;;;7.30;99.90;;;;;;5065565;28;20140;-62
2024/03/11 11:32:13;;;;;;;0.80;0.20;;;7.40;99.90;;;;;;5060697;28;20115;-63
2024/03/11 11:34:59;;;;;;;0.10;0.10;;;7.60;99.90;;;;;;5058002;28;20119;-63
2024/03/11 11:37:45;;;;;;;;;;;7.70;99.90;;;;;;5061256;28;20033;-63
2024/03/11 11:40:32;;;;;;;1.10;0.20;;;7.90;99.90;;;;;;5059044;28;20361;-62
2024/03/11 11:43:21;;;;;;;0.63;0.20;;;7.80;99.90;;;;;;5061747;28;20033;-62
2024/03/11 11:46:11;;;;;;;0.20;0.20;;;8.00;99.90;;;;;;5059227;28;20044;-63
2024/03/11 11:49:19;;;;;;;9.52;0.40;;;8.00;99.90;;;;;;5061723;28;20036;-62
2024/03/11 11:52:08;;;;;;;0.10;0.10;;;7.90;99.90;;;;;;5060211;28;20111;-63
2024/03/11 11:54:55;;;;;;;0.20;0.10;;;7.90;99.90;;;;;;5056863;28;20662;-63
2024/03/11 11:57:41;;;;;;;0.10;0.10;;;8.00;99.90;;;;;;5060983;28;20129;-65
2024/03/11 12:00:32;;;;;;;1.35;0.20;;;8.10;99.90;;;;;;5056333;28;20044;-63
2024/03/11 12:03:50;;;;;;;0.30;0.20;;;8.10;99.90;;;;;;5057006;28;20067;-64
2024/03/11 12:06:37;;;;;;;0.20;0.20;;;8.30;99.90;;;;;;5040383;28;20048;-64
2024/03/11 12:09:23;;;;;;;0.10;0.10;;;8.50;99.90;;;;;;5052872;28;20040;-64
2024/03/11 12:12:09;;;;;;;0.38;0.20;;;8.40;99.90;;;;;;5063431;28;20276;-64
2024/03/11 12:14:58;;;;;;;0.20;0.20;;;8.30;99.90;;;;;;5066112;28;20040;-64
2024/03/11 12:17:53;;;;;;;0.45;0.30;;;8.20;99.90;;;;;;5065581;28;20058;-64
2024/03/11 12:20:42;;;;;;;0.20;0.20;;;8.20;99.90;;;;;;5074152;28;20031;-64
2024/03/11 12:23:28;;;;;;;0.30;0.20;;;8.10;99.90;;;;;;5091965;28;20040;-64
2024/03/11 12:26:15;;;;;;;1.48;0.52;;;8.30;99.90;;;;;;5086776;28;20032;-64
2024/03/11 12:29:21;;;;;;;1.85;0.20;;;8.20;99.90;;;;;;5088378;28;20447;-64
2024/03/11 12:32:11;;;;;;;0.30;0.20;;;8.20;99.90;;;;;;5088164;28;20036;-64
2024/03/11 12:34:59;;;;;;;0.30;0.22;;;8.30;99.90;;;;;;5087099;28;20448;-64
2024/03/11 12:37:45;;;;;;;0.20;0.20;;;8.20;99.90;;;;;;5090527;28;20043;-64
2024/03/11 12:40:34;;;;;;;0.68;0.30;;;8.00;99.90;;;;;;5088639;28;20034;-64
2024/03/11 12:43:29;;;;;;;0.82;0.50;;;8.10;99.90;;;;;;5092220;28;20034;-64
2024/03/11 12:46:17;;;;;;;0.28;0.17;;;8.00;99.90;;;;;;5092090;28;20028;-64
2024/03/11 12:49:04;;;;;;;0.73;0.30;;;8.00;99.90;;;;;;5096270;28;20107;-64
2024/03/11 12:52:04;;;;;;;0.65;0.40;;;8.00;99.90;;;;;;5083641;28;20556;-64
2024/03/11 12:54:50;;;;;;;0.75;0.40;;;8.00;99.90;;;;;;5087596;28;20036;-65
2024/03/11 12:57:37;;;;;;;0.67;0.47;;;8.10;99.90;;;;;;5086588;28;20058;-64
2024/03/11 13:00:22;;;;;;;;;;;8.10;99.90;;;;;;5082660;28;20072;-64
2024/03/11 13:03:11;;;;;;;0.38;0.30;;;8.10;99.90;;;;;;5084729;28;19957;-64
2024/03/11 13:05:59;;;;;;;1.38;0.30;;;8.20;99.90;;;;;;5081249;28;20028;-64
2024/03/11 13:08:45;;;;;;;0.52;0.30;;;8.20;99.90;;;;;;5084337;28;20595;-64
2024/03/11 13:11:32;;;;;;;0.45;0.35;;;8.00;99.90;;;;;;5079816;28;20036;-64
2024/03/11 13:14:18;;;;;;;0.65;0.40;;;8.00;99.90;;;;;;5084286;28;20417;-64
2024/03/11 13:17:04;;;;;;;0.50;0.30;;;8.00;99.90;;;;;;5082242;28;20031;-64
2024/03/11 13:19:56;;;;;;;0.40;0.30;;;8.20;99.90;;;;;;5081084;28;20055;-64
2024/03/11 13:22:42;;;;;;;0.60;0.30;;;8.10;99.90;;;;;;5081527;28;20044;-64
2024/03/11 13:25:30;;;;;;;0.77;0.30;;;8.00;99.90;;;;;;5075280;28;20086;-64
2024/03/11 13:28:16;;;;;;;0.40;0.30;;;7.90;99.90;;;;;;5085537;28;20122;-64
2024/03/11 13:31:02;;;;;;;0.20;0.20;;;7.80;99.90;;;;;;5081876;28;20028;-64
2024/03/11 13:33:48;;;;;;;0.20;0.20;;;7.80;99.90;;;;;;5083196;28;20036;-64
2024/03/11 13:36:34;;;;;;;0.30;0.30;;;7.90;99.90;;;;;;5081937;28;20059;-65
2024/03/11 13:39:20;;;;;;;1.40;0.60;;;7.90;99.90;;;;;;5089082;28;20024;-64
2024/03/11 13:42:08;;;;;;;1.08;0.47;;;7.90;99.90;;;;;;5083839;28;20035;-63
2024/03/11 13:44:54;;;;;;;5.13;0.80;;;7.80;99.90;;;;;;5084745;28;20542;-64
2024/03/11 13:47:40;;;;;;;0.85;0.52;;;7.80;99.90;;;;;;5083573;28;20036;-63
2024/03/11 13:50:26;;;;;;;1.20;0.82;;;7.90;99.90;;;;;;5063136;28;20034;-63
2024/03/11 13:53:12;;;;;;;7.22;0.90;;;8.00;99.90;;;;;;5083089;28;20035;-63
2024/03/11 13:56:00;;;;;;;1.85;0.90;;;8.00;99.90;;;;;;5064817;28;20590;-63
2024/03/11 13:58:46;;;;;;;3.38;0.93;;;8.00;99.90;;;;;;5081349;28;20546;-64
2024/03/11 14:01:32;;;;;;;1.00;0.63;;;8.10;99.90;;;;;;5064868;28;20124;-65
2024/03/11 14:04:21;;;;;;;0.95;0.57;;;8.00;99.90;;;;;;5082880;28;20063;-63
2024/03/11 14:07:08;;;;;;;1.13;0.60;;;8.00;99.90;;;;;;5076612;28;20040;-65
2024/03/11 14:09:55;;;;;;;3.20;0.60;;;7.90;99.90;;;;;;5063902;28;20039;-65
2024/03/11 14:12:42;;;;;;;1.63;0.60;;;7.90;99.90;;;;;;5078424;28;20039;-65
2024/03/11 14:15:29;;;;;;;3.55;0.77;;;7.80;99.90;;;;;;5079809;28;20043;-65
2024/03/11 14:18:16;;;;;;;1.90;0.88;;;7.80;99.90;;;;;;5080691;28;20434;-63
2024/03/11 14:21:04;;;;;;;1.60;0.73;;;7.80;99.90;;;;;;5079433;28;20044;-63
2024/03/11 14:23:50;;;;;;;0.98;0.70;;;7.90;99.90;;;;;;5082316;28;20131;-64
2024/03/11 14:26:38;;;;;;;0.95;0.60;;;7.80;99.90;;;;;;5070129;28;20050;-64
2024/03/11 14:29:24;;;;;;;1.08;0.68;;;7.80;99.90;;;;;;5078569;28;20117;-64
2024/03/11 14:32:10;;;;;;;2.75;0.80;;;7.80;99.90;;;;;;5081613;28;20415;-65